Airfield :
LOGIN :

Register | Disclaimer

   EN    FR    IT 

 










Legend :    VFR   Marginal VFR   IFR   Intensive IFR   Very Intensive IFR
Visi :
Ceiling :
>= 8 km
>= 3000ft
5 to 8 km
1000 to 3000 ft
1500m to 5 km
500 to 1000 ft
800 to 1500m
200 to 500 ft
< 800m
< 200 ft
Symbols :   Thunderstorms  Fog  Heavy snow  Heavy precipitations  Wind > 20 kt
SIGMETs :     Misc.  Thunderstorms  Icing  Turbulence  Mountain Waves  Volcanic Ashes







- Airport Elevation : 416 ft
- IATA code : OVD


LEAS - Asturias

CURRENT METAR :
  • 180730Z 24005KT CAVOK 04/02 Q1024 NOSIG

EXPIRED METARs :
  • 180700Z VRB01KT CAVOK 04/02 Q1024 NOSIG
  • 180630Z VRB01KT CAVOK 04/02 Q1024 NOSIG
  • 180600Z 23004KT CAVOK 04/03 Q1024 NOSIG
  • 180530Z 23006KT CAVOK 05/03 Q1024 NOSIG
  • 180500Z 22006KT CAVOK 05/02 Q1024 NOSIG

TAF TAF LEAS
Valid from the 18 at 03:00 until the 19 at 03:00 UTC


180200Z 1803/1903 22008KT 9999 SCT030 TX15/1814Z TN05/1806Z
TEMPO 1900/1903 29010KT 3000 RADZ BKN005 BKN010
No reported NOTAMs for that airfield.



MET'MAP, your aeronautical weather chart ! - Copyright ORBIFLY December 2007 - Disclaimer

ORBIFLY MET'MAP TEAM :

Programming & Development : Alexandra Zaïnal
Concept & Development : Baudouin d'Aumeries
Co-Development & Prog : Marc-Olivier Méhu
Technical & hardware support : Manuel Goepfert

Contact : metmap@orbifly.com




SOURCES & CREDITS :

   NOAA